< < Back
Terminal Aerodrome Forecast


Current Version              Previous Versions:   1  2  3  4  5  6  7  8  9  

Terminal Aerodrome Forecast

387
FTUS44 KOHX 011700
TAFBNA
TAF
KBNA 011735Z 0118/0218 20007KT 5SM -SHRA BR OVC015
      TEMPO 0118/0122 SCT015 OVC080
     FM020200 35006KT 5SM -SHRA BR OVC008
     FM020800 01009KT P6SM OVC010
      TEMPO 0208/0212 5SM -FZDZ
     FM021200 03008KT 5SM BR OVC012
     FM021500 04009KT P6SM BKN035=



Latest METAR

999
SAUS70 KWBC 020100 RRJ
MTRBNA
METAR KBNA 020053Z 19003KT 1 1/4SM BR SCT015 OVC021 09/09 A3031 RMK AO2
TWR VIS 2 1/2 RAE36 SLP264 P0002 T00940094


USA.gov is the U.S. government's official web portal to all federal, state and local government web resources and services.